createdAt,value
2022-11-09T00:01:03.047Z,80.76
2022-11-09T00:03:30.123Z,80.81
2022-11-09T00:05:59.248Z,80.74
2022-11-09T00:08:26.892Z,80.85
2022-11-09T00:10:53.977Z,81.18
2022-11-09T00:13:22.110Z,81.22
2022-11-09T00:15:53.054Z,81.44
2022-11-09T00:18:20.086Z,81.36
2022-11-09T00:20:48.425Z,81.25
2022-11-09T00:23:17.390Z,81.45
2022-11-09T00:25:44.857Z,81.41
2022-11-09T00:28:12.059Z,81.46
2022-11-09T00:30:39.841Z,81.33
2022-11-09T00:33:07.512Z,81.33
2022-11-09T00:35:38.355Z,81.41
2022-11-09T00:38:05.400Z,81.58
2022-11-09T00:40:32.418Z,81.41
2022-11-09T00:42:59.500Z,81.56
2022-11-09T00:45:26.512Z,81.67
2022-11-09T00:47:55.510Z,81.54
2022-11-09T00:50:22.530Z,81.69
2022-11-09T00:52:49.605Z,81.42
2022-11-09T00:55:16.967Z,81.36
2022-11-09T00:57:43.883Z,81.38
2022-11-09T01:00:13.718Z,81.32
2022-11-09T01:02:43.152Z,81.21
2022-11-09T01:05:10.201Z,81.03
2022-11-09T01:07:39.046Z,80.96
2022-11-09T01:10:07.479Z,80.82
2022-11-09T01:12:34.935Z,80.49
2022-11-09T01:15:02.104Z,80.39
2022-11-09T01:17:29.174Z,80.09
2022-11-09T01:19:56.176Z,80.26
2022-11-09T01:22:23.350Z,80.26
2022-11-09T01:24:50.330Z,80.43
2022-11-09T01:27:17.393Z,80.58
2022-11-09T01:29:44.379Z,80.61
2022-11-09T01:32:11.414Z,80.87
2022-11-09T01:34:40.797Z,80.90
2022-11-09T01:37:07.819Z,81.17
2022-11-09T01:39:34.721Z,81.17
2022-11-09T01:42:03.139Z,81.36
2022-11-09T01:44:30.669Z,81.42
2022-11-09T01:47:19.887Z,81.64
2022-11-09T01:49:58.090Z,81.69
2022-11-09T01:52:36.266Z,81.82
2022-11-09T01:55:16.171Z,81.65
2022-11-09T01:57:53.602Z,81.81
2022-11-09T02:00:21.085Z,81.99
2022-11-09T02:02:58.428Z,81.99
2022-11-09T02:05:31.036Z,82.30
2022-11-09T02:08:03.738Z,82.13
2022-11-09T02:10:45.398Z,82.23
2022-11-09T02:13:18.094Z,82.11
2022-11-09T02:15:46.037Z,82.39
2022-11-09T02:18:14.418Z,82.37
2022-11-09T02:20:52.294Z,82.16
2022-11-09T02:23:25.273Z,82.13
2022-11-09T02:26:00.401Z,81.84
2022-11-09T02:28:28.914Z,82.05
2022-11-09T02:30:58.149Z,82.09
2022-11-09T02:33:26.131Z,81.97
2022-11-09T02:35:54.398Z,82.12
2022-11-09T02:38:22.314Z,82.12
2022-11-09T02:40:53.046Z,82.06
2022-11-09T02:43:21.056Z,82.44
2022-11-09T02:45:48.645Z,82.60
2022-11-09T02:48:15.671Z,82.46
2022-11-09T02:50:42.774Z,82.41
2022-11-09T02:53:10.793Z,82.26
2022-11-09T02:55:41.795Z,82.12
2022-11-09T02:58:09.270Z,82.13
2022-11-09T03:00:37.505Z,82.00
2022-11-09T03:03:05.878Z,81.68
2022-11-09T03:05:32.993Z,81.53
2022-11-09T03:08:02.550Z,81.39
2022-11-09T03:10:32.690Z,81.24
2022-11-09T03:13:00.825Z,81.14
2022-11-09T03:15:28.019Z,80.72
2022-11-09T03:17:56.691Z,80.63
2022-11-09T03:20:24.766Z,80.52
2022-11-09T03:22:52.074Z,80.59
2022-11-09T03:25:19.106Z,80.34
2022-11-09T03:27:46.236Z,80.03
2022-11-09T03:30:13.702Z,79.85
2022-11-09T03:32:41.290Z,79.80
2022-11-09T03:35:09.411Z,79.62
2022-11-09T03:37:37.440Z,79.51
2022-11-09T03:40:05.526Z,79.59
2022-11-09T03:42:32.503Z,79.55
2022-11-09T03:44:59.742Z,79.64
2022-11-09T03:47:26.718Z,79.53
2022-11-09T03:49:53.646Z,79.75
2022-11-09T03:52:20.972Z,79.72
2022-11-09T03:54:48.077Z,79.89
2022-11-09T03:57:16.095Z,79.71
2022-11-09T03:59:43.089Z,79.72
2022-11-09T04:02:10.208Z,79.69
2022-11-09T04:04:37.263Z,79.78
2022-11-09T04:07:04.344Z,79.69
2022-11-09T04:09:31.473Z,79.79
2022-11-09T04:11:58.538Z,79.84
2022-11-09T04:14:25.656Z,79.80
2022-11-09T04:16:52.723Z,80.00
2022-11-09T04:19:19.842Z,79.95
2022-11-09T04:21:46.814Z,80.00
2022-11-09T04:24:13.920Z,80.10
2022-11-09T04:26:42.074Z,80.14
2022-11-09T04:29:10.822Z,80.09
2022-11-09T04:31:37.779Z,80.07
2022-11-09T04:34:04.894Z,80.17
2022-11-09T04:36:32.025Z,80.23
2022-11-09T04:38:59.001Z,80.27
2022-11-09T04:41:28.343Z,80.33
2022-11-09T04:43:55.379Z,80.13
2022-11-09T04:46:22.559Z,79.95
2022-11-09T04:48:49.733Z,79.81
2022-11-09T04:51:16.938Z,79.81
2022-11-09T04:53:45.258Z,80.08
2022-11-09T04:56:12.378Z,80.18
2022-11-09T04:58:40.640Z,80.43
2022-11-09T05:01:12.689Z,80.72
2022-11-09T05:03:40.987Z,81.04
2022-11-09T05:06:27.578Z,81.09
2022-11-09T05:08:55.832Z,81.34
2022-11-09T05:11:23.252Z,81.55
2022-11-09T05:13:51.833Z,81.70
2022-11-09T05:16:20.314Z,81.79
2022-11-09T05:18:47.528Z,81.85
2022-11-09T05:21:15.238Z,81.90
2022-11-09T05:24:00.612Z,82.04
2022-11-09T05:26:37.509Z,82.08
2022-11-09T05:29:11.143Z,82.40
2022-11-09T05:31:39.845Z,82.38
2022-11-09T05:34:10.214Z,82.64
2022-11-09T05:36:37.162Z,82.54
2022-11-09T05:39:04.184Z,82.97
2022-11-09T05:41:31.268Z,83.17
2022-11-09T05:44:03.453Z,83.30
2022-11-09T05:46:31.577Z,83.58
2022-11-09T05:48:58.580Z,84.19
2022-11-09T05:51:25.707Z,84.39
2022-11-09T05:53:52.813Z,84.19
2022-11-09T05:56:19.926Z,84.10
2022-11-09T05:58:46.979Z,84.00
2022-11-09T06:01:18.699Z,84.41
2022-11-09T06:03:46.076Z,84.32
2022-11-09T06:06:16.389Z,84.03
2022-11-09T06:08:43.422Z,84.03
2022-11-09T06:11:18.258Z,84.02
2022-11-09T06:13:50.314Z,83.87
2022-11-09T06:16:19.578Z,83.98
2022-11-09T06:18:46.703Z,83.85
2022-11-09T06:21:13.686Z,83.78
2022-11-09T06:23:40.836Z,83.61
2022-11-09T06:26:11.163Z,83.55
2022-11-09T06:28:40.937Z,83.67
2022-11-09T06:31:12.930Z,83.58
2022-11-09T06:33:41.304Z,83.52
2022-11-09T06:36:11.276Z,83.30
2022-11-09T06:38:38.708Z,83.68
2022-11-09T06:41:06.909Z,83.72
2022-11-09T06:43:34.018Z,84.20
2022-11-09T06:46:05.649Z,84.54
2022-11-09T06:48:33.079Z,84.58
2022-11-09T06:51:02.345Z,84.28
2022-11-09T06:53:31.136Z,84.15
2022-11-09T06:56:03.786Z,83.57
2022-11-09T06:58:31.833Z,83.81
2022-11-09T07:00:59.562Z,83.92
2022-11-09T07:03:26.731Z,83.92
2022-11-09T07:05:53.680Z,84.02
2022-11-09T07:08:20.798Z,84.18
2022-11-09T07:10:47.814Z,84.38
2022-11-09T07:13:14.862Z,84.54
2022-11-09T07:15:41.872Z,84.51
2022-11-09T07:18:13.177Z,84.83
2022-11-09T07:20:40.200Z,84.78
2022-11-09T07:23:07.267Z,84.84
2022-11-09T07:25:34.682Z,85.04
2022-11-09T07:28:08.483Z,84.95
2022-11-09T07:30:36.973Z,85.17
2022-11-09T07:33:13.469Z,84.99
2022-11-09T07:35:42.612Z,85.00
2022-11-09T07:38:10.255Z,85.03
2022-11-09T07:40:40.843Z,84.85
2022-11-09T07:43:12.425Z,85.08
2022-11-09T07:45:40.769Z,84.81
2022-11-09T07:48:11.638Z,84.71
2022-11-09T07:50:40.492Z,84.59
2022-11-09T07:53:10.662Z,84.38
2022-11-09T07:55:37.810Z,84.32
2022-11-09T07:58:12.835Z,84.20
2022-11-09T08:00:42.241Z,84.29
2022-11-09T08:03:12.906Z,84.23
2022-11-09T08:05:40.818Z,84.18
2022-11-09T08:08:11.606Z,83.98
2022-11-09T08:10:39.867Z,84.02
2022-11-09T08:13:11.631Z,83.79
2022-11-09T08:15:41.168Z,83.76
2022-11-09T08:18:17.347Z,83.78
2022-11-09T08:20:44.674Z,83.44
2022-11-09T08:23:14.435Z,83.54
2022-11-09T08:25:41.845Z,83.24
2022-11-09T08:28:13.517Z,83.13
2022-11-09T08:30:43.525Z,83.17
2022-11-09T08:33:13.103Z,82.92
2022-11-09T08:35:40.180Z,82.76
2022-11-09T08:38:07.255Z,82.58
2022-11-09T08:40:39.982Z,82.48
2022-11-09T08:43:08.801Z,82.52
2022-11-09T08:45:39.024Z,82.24
2022-11-09T08:48:10.370Z,82.11
2022-11-09T08:50:37.862Z,81.82
2022-11-09T08:53:06.142Z,81.87
2022-11-09T08:55:33.343Z,81.83
2022-11-09T08:58:03.386Z,81.84
2022-11-09T09:00:31.226Z,81.72
2022-11-09T09:03:05.005Z,81.45
2022-11-09T09:05:34.626Z,80.93
2022-11-09T09:08:04.027Z,80.70
2022-11-09T09:10:35.522Z,80.76
2022-11-09T09:13:04.225Z,80.27
2022-11-09T09:15:33.856Z,79.43
2022-11-09T09:18:02.948Z,78.78
2022-11-09T09:20:30.131Z,78.57
2022-11-09T09:23:01.359Z,78.29
2022-11-09T09:25:28.977Z,77.58
2022-11-09T09:27:56.270Z,77.05
2022-11-09T09:30:23.503Z,77.16
2022-11-09T09:32:50.717Z,76.97
2022-11-09T09:35:17.958Z,76.69
2022-11-09T09:37:44.981Z,76.69
2022-11-09T09:40:29.862Z,76.56
2022-11-09T09:42:57.367Z,76.68
2022-11-09T09:45:34.645Z,76.19
2022-11-09T09:48:28.003Z,75.78
2022-11-09T09:51:10.764Z,75.78
2022-11-09T09:53:49.962Z,74.60
2022-11-09T09:56:26.922Z,74.71
2022-11-09T09:59:01.417Z,74.75
2022-11-09T10:01:39.206Z,74.29
2022-11-09T10:04:41.821Z,74.73
2022-11-09T10:07:23.973Z,74.42
2022-11-09T10:10:12.278Z,74.38
2022-11-09T10:13:25.810Z,73.70
2022-11-09T10:15:58.622Z,73.85
2022-11-09T10:19:08.566Z,73.32
2022-11-09T10:22:10.393Z,73.08
2022-11-09T10:25:37.712Z,73.01
2022-11-09T10:28:12.766Z,73.11
2022-11-09T10:30:41.051Z,73.19
2022-11-09T10:33:21.459Z,72.83
2022-11-09T10:36:25.017Z,72.03
2022-11-09T10:38:59.402Z,70.99
2022-11-09T10:41:48.727Z,70.98
2022-11-09T10:44:34.044Z,70.46
2022-11-09T10:47:20.164Z,70.71
2022-11-09T10:50:22.954Z,70.90
2022-11-09T10:53:25.238Z,70.77
2022-11-09T10:56:21.200Z,70.16
2022-11-09T11:00:06.339Z,69.46
2022-11-09T11:02:53.219Z,69.71
2022-11-09T11:05:39.776Z,69.19
2022-11-09T11:08:42.934Z,68.27
2022-11-09T11:11:34.174Z,67.44
2022-11-09T11:14:36.341Z,67.75
2022-11-09T11:17:26.661Z,67.18
2022-11-09T11:20:35.379Z,67.41
2022-11-09T11:23:26.707Z,67.19
2022-11-09T11:26:40.730Z,65.44
2022-11-09T11:29:48.338Z,63.96
2022-11-09T11:32:34.332Z,64.24
2022-11-09T11:35:57.038Z,64.42
2022-11-09T11:38:57.666Z,64.14
2022-11-09T11:42:01.928Z,64.82
2022-11-09T11:45:41.521Z,65.00
2022-11-09T11:48:45.837Z,64.56
2022-11-09T11:52:04.539Z,64.00
2022-11-09T11:55:29.445Z,64.84
2022-11-09T11:59:09.595Z,64.84
2022-11-09T12:02:51.701Z,64.46
2022-11-09T12:06:16.775Z,65.12
2022-11-09T12:09:18.598Z,65.66
2022-11-09T12:12:26.779Z,65.08
2022-11-09T12:15:23.846Z,64.57
2022-11-09T12:18:51.074Z,64.41
2022-11-09T12:21:55.084Z,65.53
2022-11-09T12:25:18.715Z,66.79
2022-11-09T12:28:41.126Z,67.48
2022-11-09T12:32:20.966Z,67.95
2022-11-09T12:35:38.287Z,68.12
2022-11-09T12:38:54.819Z,68.07
2022-11-09T12:41:41.276Z,67.64
2022-11-09T12:44:35.074Z,67.57
2022-11-09T12:47:34.818Z,66.37
2022-11-09T12:50:26.172Z,66.55
2022-11-09T12:53:13.479Z,65.56
2022-11-09T12:56:24.860Z,64.72
2022-11-09T12:59:53.253Z,64.28
2022-11-09T13:02:58.487Z,64.26
2022-11-09T13:05:47.558Z,64.82
2022-11-09T13:08:33.381Z,64.78
2022-11-09T13:11:33.417Z,64.91
2022-11-09T13:14:22.087Z,64.84
2022-11-09T13:17:26.184Z,64.54
2022-11-09T13:20:54.039Z,64.68
2022-11-09T13:23:59.978Z,64.29
2022-11-09T13:26:46.539Z,63.90
2022-11-09T13:29:41.401Z,63.55
2022-11-09T13:32:33.167Z,63.45
2022-11-09T13:35:40.435Z,62.91
2022-11-09T13:38:30.393Z,62.89
2022-11-09T13:41:32.127Z,63.12
2022-11-09T13:44:34.176Z,62.35
2022-11-09T13:47:34.027Z,61.89
2022-11-09T13:50:24.731Z,62.29
2022-11-09T13:53:38.534Z,61.66
2022-11-09T13:56:29.844Z,61.42
2022-11-09T13:59:32.489Z,62.50
2022-11-09T14:02:23.665Z,62.53
2022-11-09T14:05:34.094Z,62.98
2022-11-09T14:08:31.725Z,62.96
2022-11-09T14:11:47.744Z,63.08
2022-11-09T14:15:18.631Z,62.54
2022-11-09T14:18:36.514Z,63.34
2022-11-09T14:21:47.625Z,63.42
2022-11-09T14:24:37.340Z,63.29
2022-11-09T14:27:23.531Z,63.90
2022-11-09T14:30:23.432Z,64.18
2022-11-09T14:33:27.091Z,64.55
2022-11-09T14:36:13.711Z,64.60
2022-11-09T14:39:24.115Z,64.96
2022-11-09T14:42:23.720Z,65.64
2022-11-09T14:45:17.254Z,65.31
2022-11-09T14:48:03.279Z,65.16
2022-11-09T14:50:53.446Z,65.08
2022-11-09T14:53:43.241Z,65.00
2022-11-09T14:56:30.743Z,65.25
2022-11-09T14:59:30.286Z,65.38
2022-11-09T15:02:20.698Z,65.87
2022-11-09T15:05:07.893Z,65.53
2022-11-09T15:07:53.716Z,65.85
2022-11-09T15:10:39.517Z,66.19
2022-11-09T15:13:43.119Z,66.54
2022-11-09T15:16:31.536Z,67.00
2022-11-09T15:19:38.870Z,67.04
2022-11-09T15:22:51.983Z,66.91
2022-11-09T15:25:44.870Z,67.24
2022-11-09T15:28:35.714Z,67.58
2022-11-09T15:31:22.732Z,67.68
2022-11-09T15:34:26.965Z,68.05
2022-11-09T15:37:32.403Z,67.78
2022-11-09T15:40:23.223Z,68.14
2022-11-09T15:43:08.876Z,68.51
2022-11-09T15:45:56.759Z,68.80
2022-11-09T15:48:46.235Z,68.96
2022-11-09T15:51:33.177Z,69.20
2022-11-09T15:54:19.914Z,69.50
2022-11-09T15:57:05.702Z,69.83
2022-11-09T15:59:52.307Z,69.91
2022-11-09T16:02:37.738Z,70.16
2022-11-09T16:05:25.522Z,70.23
2022-11-09T16:08:11.768Z,70.44
2022-11-09T16:10:57.506Z,70.52
2022-11-09T16:13:43.363Z,70.53
2022-11-09T16:16:30.524Z,70.64
2022-11-09T16:19:16.942Z,70.83
2022-11-09T16:22:02.922Z,70.96
2022-11-09T16:24:49.259Z,70.95
2022-11-09T16:27:49.580Z,70.85
2022-11-09T16:30:36.968Z,71.03
2022-11-09T16:33:22.449Z,71.45
2022-11-09T16:36:15.235Z,71.73
2022-11-09T16:39:09.270Z,72.11
2022-11-09T16:42:19.841Z,72.43
2022-11-09T16:45:13.401Z,72.53
2022-11-09T16:47:59.645Z,72.97
2022-11-09T16:50:45.193Z,73.22
2022-11-09T16:53:31.169Z,73.76
2022-11-09T16:56:17.179Z,74.38
2022-11-09T16:59:03.397Z,74.54
2022-11-09T17:01:55.715Z,74.74
2022-11-09T17:04:42.034Z,74.88
2022-11-09T17:07:28.441Z,75.01
2022-11-09T17:10:14.762Z,75.37
2022-11-09T17:13:01.019Z,75.63
2022-11-09T17:15:50.107Z,75.98
2022-11-09T17:18:37.648Z,76.30
2022-11-09T17:21:25.917Z,76.12
2022-11-09T17:24:12.626Z,76.42
2022-11-09T17:26:59.070Z,76.54
2022-11-09T17:29:45.872Z,76.44
2022-11-09T17:32:31.718Z,76.66
2022-11-09T17:35:18.066Z,76.61
2022-11-09T17:38:04.011Z,76.75
2022-11-09T17:40:50.586Z,76.88
2022-11-09T17:43:42.949Z,76.94
2022-11-09T17:46:28.774Z,76.91
2022-11-09T17:49:14.762Z,76.95
2022-11-09T17:52:00.342Z,76.89
2022-11-09T17:54:47.112Z,77.02
2022-11-09T17:57:33.207Z,77.04
2022-11-09T18:00:20.370Z,77.02
2022-11-09T18:03:08.358Z,77.12
2022-11-09T18:05:53.889Z,76.72
2022-11-09T18:08:45.962Z,76.93
2022-11-09T18:11:31.312Z,76.96
2022-11-09T18:14:21.103Z,77.17
2022-11-09T18:17:09.076Z,77.29
2022-11-09T18:19:55.058Z,77.28
2022-11-09T18:22:40.647Z,77.05
2022-11-09T18:25:27.025Z,77.02
2022-11-09T18:28:13.855Z,77.05
2022-11-09T18:31:13.963Z,77.36
2022-11-09T18:33:59.804Z,77.75
2022-11-09T18:36:55.845Z,77.92
2022-11-09T18:39:44.022Z,77.84
2022-11-09T18:42:33.892Z,77.91
2022-11-09T18:45:21.452Z,77.91
2022-11-09T18:48:06.830Z,77.95
2022-11-09T18:50:54.595Z,77.83
2022-11-09T18:53:44.099Z,77.97
2022-11-09T18:56:30.914Z,77.98
2022-11-09T18:59:19.319Z,78.06
2022-11-09T19:02:07.300Z,78.25
2022-11-09T19:04:52.851Z,78.39
2022-11-09T19:07:39.206Z,78.56
2022-11-09T19:10:24.961Z,78.67
2022-11-09T19:13:10.623Z,78.75
2022-11-09T19:15:58.340Z,78.95
2022-11-09T19:18:44.447Z,79.14
2022-11-09T19:21:51.475Z,79.21
2022-11-09T19:24:37.282Z,79.45
2022-11-09T19:27:24.986Z,79.60
2022-11-09T19:30:11.126Z,79.67
2022-11-09T19:32:58.937Z,79.98
2022-11-09T19:35:52.742Z,80.01
2022-11-09T19:38:48.653Z,80.55
2022-11-09T19:41:36.067Z,80.29
2022-11-09T19:44:22.898Z,80.30
2022-11-09T19:47:08.882Z,80.33
2022-11-09T19:49:54.259Z,80.47
2022-11-09T19:52:40.083Z,80.73
2022-11-09T19:55:25.846Z,81.01
2022-11-09T19:58:11.902Z,80.96
2022-11-09T20:01:11.963Z,81.48
2022-11-09T20:04:00.552Z,81.34
2022-11-09T20:06:46.107Z,81.48
2022-11-09T20:09:32.456Z,81.38
2022-11-09T20:12:36.399Z,81.52
2022-11-09T20:15:22.221Z,81.87
2022-11-09T20:18:08.579Z,81.85
2022-11-09T20:20:55.111Z,81.80
2022-11-09T20:23:40.990Z,81.92
2022-11-09T20:26:27.078Z,82.06
2022-11-09T20:29:12.650Z,82.26
2022-11-09T20:31:58.529Z,82.43
2022-11-09T20:34:44.260Z,82.48
2022-11-09T20:37:33.643Z,82.61
2022-11-09T20:40:19.375Z,82.70
2022-11-09T20:43:05.049Z,82.72
2022-11-09T20:45:51.469Z,82.96
2022-11-09T20:48:57.631Z,83.10
2022-11-09T20:51:43.764Z,82.91
2022-11-09T20:54:29.492Z,82.94
2022-11-09T20:57:15.235Z,83.03
2022-11-09T21:00:00.959Z,83.06
2022-11-09T21:02:46.636Z,83.10
2022-11-09T21:05:33.361Z,83.23
2022-11-09T21:08:19.292Z,83.11
2022-11-09T21:11:09.194Z,83.01
2022-11-09T21:13:56.172Z,83.38
2022-11-09T21:16:43.878Z,84.02
2022-11-09T21:19:29.647Z,83.70
2022-11-09T21:22:15.319Z,83.86
2022-11-09T21:25:19.932Z,84.02
2022-11-09T21:28:24.354Z,84.13
2022-11-09T21:31:10.707Z,84.13
2022-11-09T21:33:56.546Z,84.44
2022-11-09T21:36:43.873Z,84.29
2022-11-09T21:39:29.198Z,84.89
2022-11-09T21:42:15.323Z,84.70
2022-11-09T21:45:01.213Z,84.84
2022-11-09T21:47:47.865Z,84.75
2022-11-09T21:50:34.520Z,84.80
2022-11-09T21:53:20.198Z,84.93
2022-11-09T21:56:07.861Z,84.94
2022-11-09T21:58:53.359Z,84.83
2022-11-09T22:01:39.340Z,84.79
2022-11-09T22:04:24.653Z,85.09
2022-11-09T22:07:10.290Z,85.19
2022-11-09T22:10:10.008Z,85.06
2022-11-09T22:13:16.599Z,85.36
2022-11-09T22:16:09.124Z,85.25
2022-11-09T22:19:13.288Z,85.26
2022-11-09T22:21:58.767Z,85.73
2022-11-09T22:24:44.783Z,85.57
2022-11-09T22:27:32.287Z,85.83
2022-11-09T22:30:17.717Z,85.73
2022-11-09T22:33:03.572Z,85.67
2022-11-09T22:36:01.628Z,85.60
2022-11-09T22:38:47.373Z,86.09
2022-11-09T22:41:33.027Z,86.13
2022-11-09T22:44:18.726Z,86.42
2022-11-09T22:47:04.954Z,86.28
2022-11-09T22:49:50.709Z,86.04
2022-11-09T22:52:36.390Z,86.26
2022-11-09T22:55:22.720Z,86.29
2022-11-09T22:58:08.457Z,86.52
2022-11-09T23:00:55.101Z,86.42
2022-11-09T23:03:42.849Z,86.34
2022-11-09T23:06:29.112Z,86.50
2022-11-09T23:09:14.694Z,86.60
2022-11-09T23:12:01.269Z,86.68
2022-11-09T23:15:05.345Z,86.80
2022-11-09T23:18:15.633Z,86.93
2022-11-09T23:21:01.430Z,86.92
2022-11-09T23:23:48.825Z,87.05
2022-11-09T23:26:35.076Z,87.19
2022-11-09T23:29:20.735Z,87.38
2022-11-09T23:32:06.646Z,87.56
2022-11-09T23:34:52.278Z,87.53
2022-11-09T23:37:38.107Z,87.49
2022-11-09T23:40:23.549Z,87.66
2022-11-09T23:43:12.239Z,87.76
2022-11-09T23:46:04.762Z,87.76
2022-11-09T23:48:50.424Z,87.80
2022-11-09T23:51:35.930Z,87.97
2022-11-09T23:54:21.603Z,87.80
2022-11-09T23:57:07.411Z,87.96
2022-11-09T23:59:53.223Z,88.06
